Indian Springs, Indiana
Current Conditions -  °F | °C
As of 10:15 AM on Tuesday 21 Oct 2014 (Local Time) from KDCY Reporting Station
Overcast Overcast  
Wind Chill: 56°   Ceiling: 5000
Heat Index: 56°   Visibility: 10mi
Dew Point: 47°   Wind: 10mph
Humidity: 72%   Direction: 360°N
Pressure: 30.1"   Gusts: 20mph
Location:  38.6262°N, 86.7615°W
Report Text: KDCY 211515Z AUTO 36009G17KT 10SM OVC050 13/08 A3010 RMK AO2 T01320083
Loading
Personal Weather Stations






























Interactive Weather Map New forecast layout! Learn more

10-Day Weather Forecast

Advertisements
Track Severe Weather on mobile